Time;durP1;ratioP1;P1;durP2;ratioP2;P2;SDS_P1;SDS_P2;PMS_P1;PMS_P2;Temp;Humidity;BMP_temperature;BMP_pressure;BME280_temperature;BME280_humidity;BME280_pressure;Samples;Min_cycle;Max_cycle;Signal;HPM_P1;HPM_P2
2023/03/14 00:00:37;;;;;;;6.23;1.40;;;11.20;99.90;;;;;;5073663;28;20247;-46
2023/03/14 00:03:03;;;;;;;4.43;1.20;;;11.20;99.90;;;;;;5073804;28;20189;-45
2023/03/14 00:05:28;;;;;;;6.27;1.77;;;11.20;99.90;;;;;;5073975;28;20186;-46
2023/03/14 00:07:54;;;;;;;7.67;1.73;;;11.30;99.90;;;;;;5073993;28;20227;-44
2023/03/14 00:10:20;;;;;;;6.23;1.67;;;11.30;99.90;;;;;;5073557;28;20195;-45
2023/03/14 00:12:45;;;;;;;6.83;1.70;;;11.30;99.90;;;;;;5073875;28;20183;-44
2023/03/14 00:15:12;;;;;;;9.33;1.40;;;11.30;99.90;;;;;;5073864;28;20210;-46
2023/03/14 00:17:38;;;;;;;3.07;0.97;;;11.30;99.90;;;;;;5073591;28;20179;-47
2023/03/14 00:20:08;;;;;;;1.03;0.67;;;11.00;99.90;;;;;;5074016;28;20627;-45
2023/03/14 00:22:41;;;;;;;2.63;0.70;;;10.70;99.90;;;;;;5073381;28;20186;-43
2023/03/14 00:25:09;;;;;;;3.80;0.80;;;10.30;99.90;;;;;;5073568;28;20206;-45
2023/03/14 00:27:35;;;;;;;2.57;1.20;;;10.10;99.90;;;;;;5073509;28;20278;-45
2023/03/14 00:30:00;;;;;;;5.07;1.10;;;9.90;99.90;;;;;;5073655;28;20215;-46
2023/03/14 00:32:26;;;;;;;4.80;1.03;;;9.80;99.90;;;;;;5073723;28;20209;-44
2023/03/14 00:34:52;;;;;;;8.77;1.10;;;9.60;99.90;;;;;;5073731;28;20213;-44
2023/03/14 00:37:17;;;;;;;3.57;0.77;;;9.50;99.90;;;;;;5073635;28;20176;-44
2023/03/14 00:39:43;;;;;;;2.70;0.77;;;9.40;99.90;;;;;;5073691;28;20244;-46
2023/03/14 00:42:09;;;;;;;4.40;0.80;;;9.30;99.90;;;;;;5073483;28;20202;-45
2023/03/14 00:44:34;;;;;;;1.60;0.70;;;9.30;99.90;;;;;;5073314;28;20182;-45
2023/03/14 00:47:00;;;;;;;4.03;1.00;;;9.30;99.90;;;;;;5073585;28;20217;-45
2023/03/14 00:49:25;;;;;;;2.23;0.70;;;9.30;99.90;;;;;;5073538;28;20227;-45
2023/03/14 00:51:51;;;;;;;4.53;1.03;;;9.30;99.90;;;;;;5073356;28;20194;-45
2023/03/14 00:54:18;;;;;;;4.10;1.20;;;9.30;99.90;;;;;;5073209;28;20179;-44
2023/03/14 00:56:43;;;;;;;4.27;1.10;;;9.40;99.90;;;;;;5073464;28;20265;-45
2023/03/14 00:59:09;;;;;;;4.93;1.23;;;9.40;99.90;;;;;;5073262;28;20253;-45
2023/03/14 01:01:34;;;;;;;3.33;1.30;;;9.40;99.90;;;;;;5071825;28;20208;-44
2023/03/14 01:04:00;;;;;;;3.60;0.90;;;10.80;99.90;;;;;;5071877;28;20201;-43
2023/03/14 01:06:28;;;;;;;4.37;1.10;;;9.40;99.90;;;;;;5073379;28;20191;-45
2023/03/14 01:08:54;;;;;;;3.47;1.13;;;9.30;99.90;;;;;;5073209;28;20182;-45
2023/03/14 01:11:26;;;;;;;4.43;1.00;;;9.40;99.90;;;;;;5073593;28;20207;-45
2023/03/14 01:13:52;;;;;;;6.13;1.43;;;9.40;99.90;;;;;;5073187;28;20549;-46
2023/03/14 01:16:19;;;;;;;3.83;1.33;;;9.40;99.90;;;;;;5073352;28;20206;-45
2023/03/14 01:18:46;;;;;;;5.33;1.50;;;9.40;99.90;;;;;;5073582;28;20599;-47
2023/03/14 01:21:21;;;;;;;5.07;1.30;;;9.40;99.90;;;;;;5073137;28;20197;-46
2023/03/14 01:23:47;;;;;;;3.87;1.13;;;9.40;99.90;;;;;;5072899;28;20178;-45
2023/03/14 01:26:15;;;;;;;3.63;1.00;;;9.40;99.90;;;;;;5073486;28;20232;-43
2023/03/14 01:28:41;;;;;;;4.40;1.00;;;9.40;99.90;;;;;;5072863;28;20184;-44
2023/03/14 01:31:09;;;;;;;6.37;1.43;;;9.40;99.90;;;;;;5072936;28;20203;-44
2023/03/14 01:33:35;;;;;;;6.13;1.03;;;9.40;99.90;;;;;;5074488;28;20180;-43
2023/03/14 01:36:02;;;;;;;5.43;1.40;;;9.40;99.90;;;;;;5076803;28;20294;-45
2023/03/14 01:38:28;;;;;;;7.43;1.60;;;9.50;99.90;;;;;;5076551;28;20665;-46
2023/03/14 01:40:54;;;;;;;5.70;1.20;;;9.40;99.90;;;;;;5076460;28;20313;-44
2023/03/14 01:43:20;;;;;;;7.83;1.60;;;9.40;99.90;;;;;;5076476;28;20206;-46
2023/03/14 01:46:01;;;;;;;8.57;1.10;;;9.40;99.90;;;;;;5076781;28;20254;-49
2023/03/14 01:48:30;;;;;;;8.63;1.10;;;9.40;99.90;;;;;;5076680;28;20178;-51
2023/03/14 01:50:57;;;;;;;5.03;1.10;;;9.30;99.90;;;;;;5076262;28;20206;-50
2023/03/14 01:53:23;;;;;;;4.43;1.30;;;9.30;99.90;;;;;;5077005;28;20179;-49
2023/03/14 01:55:52;;;;;;;5.23;1.40;;;9.20;99.90;;;;;;5076290;28;20286;-49
2023/03/14 01:58:19;;;;;;;7.37;1.47;;;9.20;99.90;;;;;;5076407;28;20221;-50
2023/03/14 02:00:45;;;;;;;5.63;0.93;;;9.10;99.90;;;;;;5076780;28;20265;-48
2023/03/14 02:03:16;;;;;;;4.53;1.20;;;9.10;99.90;;;;;;5076713;28;20563;-48
2023/03/14 02:05:43;;;;;;;5.27;1.30;;;9.10;99.90;;;;;;5075946;28;20197;-49
2023/03/14 02:08:15;;;;;;;3.73;0.70;;;9.10;99.90;;;;;;5076005;28;20244;-50
2023/03/14 02:10:44;;;;;;;3.47;0.97;;;9.10;99.90;;;;;;5076126;28;20263;-49
2023/03/14 02:13:11;;;;;;;5.13;0.90;;;9.10;99.90;;;;;;5076185;28;20179;-51
2023/03/14 02:15:37;;;;;;;4.57;1.07;;;9.10;99.90;;;;;;5075819;28;20309;-48
2023/03/14 02:18:04;;;;;;;2.70;1.17;;;9.10;99.90;;;;;;5076687;28;20631;-48
2023/03/14 02:20:35;;;;;;;4.17;1.00;;;9.10;99.90;;;;;;5075679;28;20188;-49
2023/03/14 02:23:01;;;;;;;6.73;1.27;;;9.10;99.90;;;;;;5076150;28;20169;-49
2023/03/14 02:25:35;;;;;;;3.57;0.90;;;9.20;99.90;;;;;;5076397;28;20181;-49
2023/03/14 02:28:01;;;;;;;7.73;1.10;;;9.20;99.90;;;;;;5075643;28;20178;-49
2023/03/14 02:30:30;;;;;;;4.20;1.00;;;9.20;99.90;;;;;;5075546;28;20697;-49
2023/03/14 02:33:03;;;;;;;5.07;1.20;;;9.20;99.90;;;;;;5075847;28;20262;-50
2023/03/14 02:35:37;;;;;;;6.83;1.53;;;9.20;99.90;;;;;;5075456;28;20656;-49
2023/03/14 02:38:24;;;;;;;5.40;1.23;;;9.20;99.90;;;;;;5075530;28;20499;-50
2023/03/14 02:40:50;;;;;;;5.87;1.80;;;9.30;99.90;;;;;;5075568;28;20244;-50
2023/03/14 02:43:16;;;;;;;6.10;1.10;;;9.20;99.90;;;;;;5076112;28;20211;-49
2023/03/14 02:45:46;;;;;;;5.33;1.27;;;9.30;99.90;;;;;;5074918;28;20213;-51
2023/03/14 02:48:28;;;;;;;5.23;1.30;;;9.30;99.90;;;;;;5075180;28;20227;-49
2023/03/14 02:50:59;;;;;;;8.67;1.47;;;9.30;99.90;;;;;;5075119;28;20198;-49
2023/03/14 02:53:33;;;;;;;6.07;1.07;;;9.30;99.90;;;;;;5075152;28;20184;-50
2023/03/14 02:55:59;;;;;;;5.40;1.30;;;9.40;99.90;;;;;;5075253;28;20197;-49
2023/03/14 02:58:26;;;;;;;4.93;1.20;;;9.40;99.90;;;;;;5074982;28;20198;-49
2023/03/14 03:00:52;;;;;;;7.17;1.17;;;9.50;99.90;;;;;;5074989;28;20248;-48
2023/03/14 03:03:18;;;;;;;12.70;1.13;;;9.50;99.90;;;;;;5074933;28;20188;-47
2023/03/14 03:05:48;;;;;;;6.97;1.80;;;9.40;99.90;;;;;;5075199;28;20181;-48
2023/03/14 03:08:14;;;;;;;10.10;1.83;;;9.50;99.90;;;;;;5075691;28;20160;-48
2023/03/14 03:10:39;;;;;;;6.27;1.90;;;9.50;99.90;;;;;;5075050;28;20225;-48
2023/03/14 03:13:05;;;;;;;8.77;2.17;;;9.40;99.90;;;;;;5074789;28;20197;-46
2023/03/14 03:15:30;;;;;;;21.27;2.10;;;9.50;99.90;;;;;;5074727;28;20210;-48
2023/03/14 03:17:56;;;;;;;7.77;1.70;;;9.40;99.90;;;;;;5073461;28;20270;-49
2023/03/14 03:20:21;;;;;;;5.03;1.77;;;9.50;99.90;;;;;;5074815;28;20192;-49
2023/03/14 03:22:48;;;;;;;6.70;1.53;;;9.40;99.90;;;;;;5075111;28;20186;-47
2023/03/14 03:25:14;;;;;;;11.07;1.70;;;9.50;99.90;;;;;;5074823;28;20195;-47
2023/03/14 03:27:39;;;;;;;5.40;1.57;;;9.40;99.90;;;;;;5074480;28;20175;-49
2023/03/14 03:30:06;;;;;;;9.30;1.57;;;9.40;99.90;;;;;;5074418;28;20207;-49
2023/03/14 03:32:32;;;;;;;5.97;1.20;;;9.40;99.90;;;;;;5074723;28;20173;-50
2023/03/14 03:34:57;;;;;;;7.40;1.67;;;9.40;99.90;;;;;;5074286;28;20206;-49
2023/03/14 03:37:24;;;;;;;2.70;1.10;;;9.40;99.90;;;;;;5074275;28;20192;-50
2023/03/14 03:39:52;;;;;;;2.70;1.23;;;9.40;99.90;;;;;;5074447;28;20187;-50
2023/03/14 03:42:18;;;;;;;6.07;1.30;;;9.30;99.90;;;;;;5074664;28;20178;-49
2023/03/14 03:44:44;;;;;;;6.43;1.37;;;9.30;99.90;;;;;;5074143;28;20192;-48
2023/03/14 03:47:10;;;;;;;5.47;1.23;;;9.30;99.90;;;;;;5074131;28;20579;-50
2023/03/14 03:49:35;;;;;;;4.17;1.33;;;9.20;99.90;;;;;;5074273;28;20206;-48
2023/03/14 03:52:01;;;;;;;10.93;1.60;;;9.30;99.90;;;;;;5074228;28;20204;-49
2023/03/14 03:54:28;;;;;;;4.37;1.00;;;9.20;99.90;;;;;;5074021;28;20655;-50
2023/03/14 03:56:54;;;;;;;2.20;1.10;;;9.20;99.90;;;;;;5073427;28;20205;-48
2023/03/14 03:59:20;;;;;;;2.43;1.00;;;9.30;99.90;;;;;;5073958;28;20307;-48
2023/03/14 04:01:45;;;;;;;3.73;1.20;;;9.30;99.90;;;;;;5073889;28;20205;-48
2023/03/14 04:04:11;;;;;;;4.93;0.83;;;9.30;99.90;;;;;;5073985;28;20180;-49
2023/03/14 04:06:37;;;;;;;0.40;0.40;;;9.30;99.90;;;;;;5074015;28;20622;-48
2023/03/14 04:09:03;;;;;;;2.67;0.80;;;9.30;99.90;;;;;;5073994;28;20197;-49
2023/03/14 04:11:28;;;;;;;2.00;0.57;;;9.30;99.90;;;;;;5073568;28;20567;-47
2023/03/14 04:13:54;;;;;;;2.93;0.87;;;9.30;99.90;;;;;;5073912;28;20223;-47
2023/03/14 04:16:23;;;;;;;3.77;0.80;;;9.30;99.90;;;;;;5073566;28;20605;-47
2023/03/14 04:18:49;;;;;;;1.77;0.50;;;9.30;99.90;;;;;;5073889;28;20192;-46
2023/03/14 04:21:15;;;;;;;2.27;0.70;;;9.30;99.90;;;;;;5073623;28;20191;-47
2023/03/14 04:23:41;;;;;;;1.03;0.57;;;9.30;99.90;;;;;;5073459;28;20180;-47
2023/03/14 04:26:06;;;;;;;1.77;0.67;;;9.30;99.90;;;;;;5073774;28;20278;-47
2023/03/14 04:28:33;;;;;;;1.77;0.40;;;9.30;99.90;;;;;;5073464;28;20660;-47
2023/03/14 04:30:58;;;;;;;1.80;0.47;;;9.30;99.90;;;;;;5073975;28;20658;-47
2023/03/14 04:33:24;;;;;;;0.70;0.40;;;9.30;99.90;;;;;;5073497;28;20221;-46
2023/03/14 04:35:54;;;;;;;1.37;0.53;;;9.30;99.90;;;;;;5073596;28;20670;-46
2023/03/14 04:38:19;;;;;;;0.40;0.30;;;9.30;99.90;;;;;;5073328;28;20174;-47
2023/03/14 04:40:45;;;;;;;0.80;0.50;;;9.20;99.90;;;;;;5073302;28;20214;-46
2023/03/14 04:43:11;;;;;;;0.70;0.43;;;9.30;99.90;;;;;;5073579;28;20523;-48
2023/03/14 04:45:40;;;;;;;1.67;0.50;;;9.30;99.90;;;;;;5073322;28;20210;-47
2023/03/14 04:48:06;;;;;;;1.60;0.53;;;9.30;99.90;;;;;;5073179;28;20220;-46
2023/03/14 04:50:31;;;;;;;0.77;0.60;;;9.30;99.90;;;;;;5073250;28;20205;-47
2023/03/14 04:52:57;;;;;;;0.90;0.37;;;9.30;99.90;;;;;;5073522;28;20242;-48
2023/03/14 04:55:22;;;;;;;0.30;0.30;;;9.30;99.90;;;;;;5073096;28;20206;-48
2023/03/14 04:57:48;;;;;;;0.30;0.30;;;9.30;99.90;;;;;;5073233;28;20183;-47
2023/03/14 05:00:14;;;;;;;0.40;0.40;;;9.30;99.90;;;;;;5073081;28;20697;-46
2023/03/14 05:02:39;;;;;;;1.73;0.40;;;9.30;99.90;;;;;;5073193;28;20174;-48
2023/03/14 05:05:05;;;;;;;0.40;0.30;;;9.30;99.90;;;;;;5073171;28;20168;-47
2023/03/14 05:07:31;;;;;;;2.03;0.30;;;9.30;99.90;;;;;;5074783;28;20295;-49
2023/03/14 05:09:56;;;;;;;0.53;0.23;;;9.30;99.90;;;;;;5077664;28;20262;-46
2023/03/14 05:12:22;;;;;;;0.20;0.20;;;9.30;99.90;;;;;;5077179;28;20268;-46
2023/03/14 05:14:47;;;;;;;1.50;0.30;;;9.30;99.90;;;;;;5077624;28;20296;-47
2023/03/14 05:17:14;;;;;;;2.80;0.47;;;9.40;99.90;;;;;;5077125;28;20198;-48
2023/03/14 05:19:40;;;;;;;2.10;0.30;;;9.30;99.90;;;;;;5077282;28;20180;-47
2023/03/14 05:22:07;;;;;;;0.50;0.20;;;9.30;99.90;;;;;;5076889;28;20272;-48
2023/03/14 05:24:32;;;;;;;0.80;0.30;;;9.30;99.90;;;;;;5076898;28;20174;-48
2023/03/14 05:26:58;;;;;;;0.20;0.20;;;9.30;99.90;;;;;;5077117;28;20232;-46
2023/03/14 05:29:23;;;;;;;0.67;0.30;;;9.30;99.90;;;;;;5076854;28;20178;-48
2023/03/14 05:31:49;;;;;;;0.20;0.20;;;9.30;99.90;;;;;;5076684;28;20195;-48
2023/03/14 05:34:15;;;;;;;0.20;0.20;;;9.30;99.90;;;;;;5076965;28;20654;-48
2023/03/14 05:36:40;;;;;;;0.20;0.20;;;9.30;99.90;;;;;;5076625;28;20281;-48
2023/03/14 05:39:06;;;;;;;0.33;0.30;;;9.20;99.90;;;;;;5076496;28;20184;-47
2023/03/14 05:41:33;;;;;;;0.30;0.30;;;9.20;99.90;;;;;;5077318;28;20207;-46
2023/03/14 05:43:59;;;;;;;0.63;0.30;;;9.20;99.90;;;;;;5076563;28;20185;-47
2023/03/14 05:46:24;;;;;;;0.10;0.10;;;9.20;99.90;;;;;;5076482;28;20181;-48
2023/03/14 05:48:50;;;;;;;0.77;0.30;;;9.20;99.90;;;;;;5076367;28;20179;-49
2023/03/14 05:51:15;;;;;;;0.47;0.27;;;9.20;99.90;;;;;;5076189;28;20194;-46
2023/03/14 05:53:41;;;;;;;0.20;0.20;;;9.20;99.90;;;;;;5075108;28;20180;-49
2023/03/14 05:56:07;;;;;;;1.93;0.40;;;9.20;99.90;;;;;;5076271;28;20562;-47
2023/03/14 05:58:33;;;;;;;0.20;0.20;;;9.20;99.90;;;;;;5076644;28;20298;-47
2023/03/14 06:01:03;;;;;;;2.57;0.30;;;9.30;99.90;;;;;;5076483;28;20621;-47
2023/03/14 06:03:28;;;;;;;0.20;0.20;;;9.20;99.90;;;;;;5076440;28;20239;-47
2023/03/14 06:05:54;;;;;;;0.20;0.20;;;9.20;99.90;;;;;;5076749;28;20642;-51
2023/03/14 06:08:20;;;;;;;0.33;0.33;;;9.20;99.90;;;;;;5076285;28;20186;-48
2023/03/14 06:10:45;;;;;;;0.20;0.20;;;9.20;99.90;;;;;;5076121;28;20206;-47
2023/03/14 06:13:11;;;;;;;0.20;0.20;;;9.20;99.90;;;;;;5076102;28;20550;-46
2023/03/14 06:15:36;;;;;;;2.10;0.30;;;9.20;99.90;;;;;;5075832;28;20200;-46
2023/03/14 06:18:02;;;;;;;1.03;0.20;;;9.30;99.90;;;;;;5074699;28;20178;-47
2023/03/14 06:20:28;;;;;;;0.10;0.10;;;9.40;99.90;;;;;;5074974;28;20231;-46
2023/03/14 06:22:53;;;;;;;0.30;0.30;;;9.40;99.90;;;;;;5074497;28;20186;-48
2023/03/14 06:25:19;;;;;;;0.20;0.20;;;9.40;99.90;;;;;;5076001;28;20223;-47
2023/03/14 06:27:44;;;;;;;0.30;0.30;;;9.50;99.90;;;;;;5075708;28;20226;-48
2023/03/14 06:30:11;;;;;;;0.20;0.20;;;9.50;99.90;;;;;;5075689;28;20238;-48
2023/03/14 06:32:37;;;;;;;0.97;0.30;;;9.60;99.90;;;;;;5075891;28;20561;-48
2023/03/14 06:35:03;;;;;;;0.20;0.20;;;9.60;99.90;;;;;;5074616;28;20235;-47
2023/03/14 06:37:29;;;;;;;0.30;0.27;;;9.60;99.90;;;;;;5075409;28;20387;-48
2023/03/14 06:39:55;;;;;;;1.20;0.20;;;9.60;99.90;;;;;;5075454;28;20178;-48
2023/03/14 06:42:22;;;;;;;0.20;0.20;;;9.60;99.90;;;;;;5075426;28;20196;-47
2023/03/14 06:44:48;;;;;;;0.43;0.20;;;9.60;99.90;;;;;;5076451;28;20190;-47
2023/03/14 06:47:13;;;;;;;1.33;0.30;;;9.60;99.90;;;;;;5075585;28;20619;-47
2023/03/14 06:49:39;;;;;;;0.40;0.30;;;9.60;99.90;;;;;;5075310;28;20312;-46
2023/03/14 06:52:05;;;;;;;0.20;0.20;;;9.60;99.90;;;;;;5075398;28;20196;-48
2023/03/14 06:54:30;;;;;;;0.20;0.20;;;9.70;99.90;;;;;;5075123;28;20175;-48
2023/03/14 06:56:56;;;;;;;0.30;0.30;;;9.70;99.90;;;;;;5075157;28;20221;-47
2023/03/14 06:59:21;;;;;;;0.30;0.23;;;9.70;99.90;;;;;;5075104;28;20210;-47
2023/03/14 07:01:48;;;;;;;0.20;0.20;;;9.80;99.90;;;;;;5075071;28;20273;-47
2023/03/14 07:04:13;;;;;;;1.10;0.33;;;9.80;99.90;;;;;;5075257;28;20199;-48
2023/03/14 07:06:43;;;;;;;0.30;0.30;;;9.90;99.90;;;;;;5075234;28;20540;-48
2023/03/14 07:09:12;;;;;;;0.37;0.30;;;9.90;99.90;;;;;;5073724;28;20179;-47
2023/03/14 07:11:37;;;;;;;1.07;0.30;;;10.00;99.90;;;;;;5074802;28;20202;-47
2023/03/14 07:14:03;;;;;;;0.73;0.30;;;10.00;99.90;;;;;;5075401;28;20552;-46
2023/03/14 07:16:32;;;;;;;1.23;0.40;;;10.10;99.90;;;;;;5074717;28;20206;-47
2023/03/14 07:18:58;;;;;;;1.27;0.40;;;10.10;99.90;;;;;;5074767;28;20197;-48
2023/03/14 07:21:24;;;;;;;0.40;0.30;;;10.10;99.90;;;;;;5074573;28;20198;-47
2023/03/14 07:23:50;;;;;;;0.40;0.40;;;10.10;99.90;;;;;;5073355;28;20179;-47
2023/03/14 07:26:16;;;;;;;0.30;0.30;;;10.10;99.90;;;;;;5074807;28;20231;-47
2023/03/14 07:28:41;;;;;;;0.50;0.40;;;10.10;99.90;;;;;;5074782;28;20180;-48
2023/03/14 07:31:07;;;;;;;0.57;0.33;;;10.20;99.90;;;;;;5074344;28;20252;-46
2023/03/14 07:33:33;;;;;;;0.50;0.50;;;10.20;99.90;;;;;;5074766;28;20522;-47
2023/03/14 07:35:59;;;;;;;0.67;0.40;;;10.20;99.90;;;;;;5075079;28;20198;-49
2023/03/14 07:38:24;;;;;;;0.73;0.60;;;10.30;99.90;;;;;;5074744;28;20183;-47
2023/03/14 07:40:50;;;;;;;0.30;0.30;;;10.30;99.90;;;;;;5074698;28;20754;-47
2023/03/14 07:43:16;;;;;;;4.20;0.50;;;10.20;99.90;;;;;;5073385;28;20174;-47
2023/03/14 07:45:45;;;;;;;0.60;0.40;;;10.20;99.90;;;;;;5074212;28;20176;-48
2023/03/14 07:48:11;;;;;;;0.40;0.40;;;10.30;99.90;;;;;;5074395;28;20236;-48
2023/03/14 07:50:36;;;;;;;0.87;0.40;;;10.30;99.90;;;;;;5074012;28;20286;-45
2023/03/14 07:53:02;;;;;;;1.80;0.43;;;10.30;99.90;;;;;;5074063;28;20214;-47
2023/03/14 07:55:28;;;;;;;0.40;0.40;;;10.50;99.90;;;;;;5073985;28;20198;-48
2023/03/14 07:57:53;;;;;;;0.30;0.30;;;10.40;99.90;;;;;;5073951;28;20650;-47
2023/03/14 08:00:19;;;;;;;0.50;0.50;;;10.50;99.90;;;;;;5073739;28;20203;-50
2023/03/14 08:02:45;;;;;;;0.63;0.47;;;10.50;99.90;;;;;;5073870;28;20255;-47
2023/03/14 08:05:10;;;;;;;0.73;0.50;;;10.60;99.90;;;;;;5074090;28;20761;-48
2023/03/14 08:07:36;;;;;;;0.53;0.43;;;10.60;99.90;;;;;;5074045;28;20712;-47
2023/03/14 08:10:02;;;;;;;1.23;0.50;;;10.70;99.90;;;;;;5074249;28;20189;-48
2023/03/14 08:12:27;;;;;;;0.77;0.50;;;10.70;99.90;;;;;;5073622;28;20214;-49
2023/03/14 08:14:53;;;;;;;0.43;0.43;;;10.70;99.90;;;;;;5073906;28;20572;-47
2023/03/14 08:17:19;;;;;;;0.67;0.67;;;10.80;99.90;;;;;;5073948;28;20182;-47
2023/03/14 08:19:44;;;;;;;0.50;0.50;;;10.90;99.90;;;;;;5073822;28;20171;-49
2023/03/14 08:22:10;;;;;;;1.03;0.60;;;10.90;99.90;;;;;;5072215;28;20731;-47
2023/03/14 08:24:35;;;;;;;0.60;0.60;;;11.00;99.90;;;;;;5073812;28;20176;-50
2023/03/14 08:27:01;;;;;;;1.30;0.50;;;11.00;99.90;;;;;;5073561;28;20262;-50
2023/03/14 08:29:26;;;;;;;0.50;0.50;;;11.00;99.90;;;;;;5073755;28;20224;-50
2023/03/14 08:31:52;;;;;;;1.37;0.80;;;10.90;99.90;;;;;;5073437;28;20195;-49
2023/03/14 08:34:17;;;;;;;2.20;0.50;;;10.90;99.90;;;;;;5073401;28;20267;-48
2023/03/14 08:36:43;;;;;;;1.50;1.10;;;10.90;99.90;;;;;;5073570;28;20215;-47
2023/03/14 08:39:09;;;;;;;1.87;0.90;;;10.90;99.90;;;;;;5073610;28;20211;-48
2023/03/14 08:41:40;;;;;;;4.57;0.80;;;10.80;99.90;;;;;;5073026;28;20226;-47
2023/03/14 08:44:06;;;;;;;1.07;0.70;;;10.80;99.90;;;;;;5073362;28;20179;-49
2023/03/14 08:46:32;;;;;;;1.27;0.60;;;10.70;99.90;;;;;;5073400;28;20176;-48
2023/03/14 08:48:57;;;;;;;0.40;0.40;;;10.60;99.90;;;;;;5073596;28;20186;-47
2023/03/14 08:51:23;;;;;;;3.40;0.67;;;10.60;99.90;;;;;;5073396;28;20226;-47
2023/03/14 08:53:48;;;;;;;0.57;0.57;;;10.60;99.90;;;;;;5073251;28;20650;-48
2023/03/14 08:56:14;;;;;;;0.80;0.50;;;10.50;99.90;;;;;;5073472;28;20568;-46
2023/03/14 08:58:41;;;;;;;1.67;0.40;;;10.40;99.90;;;;;;5073117;28;20268;-48
2023/03/14 09:01:09;;;;;;;1.13;0.53;;;10.10;99.90;;;;;;5073308;28;20218;-49
2023/03/14 09:03:34;;;;;;;0.30;0.30;;;9.60;99.90;;;;;;5073303;28;20178;-48
2023/03/14 09:06:08;;;;;;;0.30;0.30;;;9.40;99.90;;;;;;5073707;28;20180;-48
2023/03/14 09:08:34;;;;;;;0.47;0.40;;;9.00;99.90;;;;;;5073405;28;20171;-50
2023/03/14 09:11:00;;;;;;;0.30;0.30;;;8.90;99.90;;;;;;5073023;28;20253;-48
2023/03/14 09:13:25;;;;;;;0.30;0.30;;;8.80;99.90;;;;;;5073064;28;20175;-48
2023/03/14 09:15:52;;;;;;;0.30;0.30;;;8.70;99.90;;;;;;5072997;28;20199;-50
2023/03/14 09:18:18;;;;;;;0.63;0.40;;;8.70;99.90;;;;;;5073017;28;20182;-47
2023/03/14 09:20:43;;;;;;;0.90;0.70;;;8.60;99.90;;;;;;5073196;28;20623;-48
2023/03/14 09:23:09;;;;;;;1.37;0.80;;;8.60;99.90;;;;;;5073015;28;20198;-48
2023/03/14 09:25:34;;;;;;;0.97;0.80;;;8.50;99.90;;;;;;5073016;28;20536;-47
2023/03/14 09:28:00;;;;;;;0.60;0.60;;;8.40;99.90;;;;;;5073022;28;20549;-47
2023/03/14 09:30:25;;;;;;;1.37;0.60;;;8.30;99.90;;;;;;5072853;28;20614;-48
2023/03/14 09:32:51;;;;;;;1.00;0.70;;;8.30;99.90;;;;;;5073170;28;20647;-48
2023/03/14 09:35:17;;;;;;;0.80;0.80;;;8.30;99.90;;;;;;5073327;28;20199;-49
2023/03/14 09:37:43;;;;;;;0.60;0.60;;;8.30;99.90;;;;;;5072811;28;20179;-48
2023/03/14 09:40:13;;;;;;;0.80;0.70;;;8.30;99.90;;;;;;5073098;28;20187;-49
2023/03/14 09:42:40;;;;;;;1.13;0.60;;;8.30;99.90;;;;;;5073110;28;20171;-51
2023/03/14 09:45:13;;;;;;;0.70;0.70;;;8.20;99.90;;;;;;5073022;28;20240;-48
2023/03/14 09:47:40;;;;;;;0.50;0.50;;;8.20;99.90;;;;;;5072755;28;20195;-48
2023/03/14 09:50:13;;;;;;;1.07;0.60;;;8.20;99.90;;;;;;5072713;28;20534;-48
2023/03/14 09:52:41;;;;;;;0.60;0.60;;;8.20;99.90;;;;;;5072713;28;20177;-49
2023/03/14 09:55:13;;;;;;;1.37;0.60;;;8.20;99.90;;;;;;5075058;28;20206;-48
2023/03/14 09:57:41;;;;;;;2.03;0.77;;;8.20;99.90;;;;;;5076458;28;20623;-49
2023/03/14 10:00:20;;;;;;;1.23;0.80;;;8.20;99.90;;;;;;5076081;28;20240;-48
2023/03/14 10:02:59;;;;;;;2.17;0.60;;;8.10;99.90;;;;;;5076692;28;20176;-47
2023/03/14 10:05:27;;;;;;;1.37;0.70;;;8.10;99.90;;;;;;5076120;28;20178;-46
2023/03/14 10:07:53;;;;;;;1.87;0.80;;;8.10;99.90;;;;;;5076651;28;20182;-47
2023/03/14 10:10:20;;;;;;;0.90;0.70;;;8.10;99.90;;;;;;5074733;28;20260;-45
2023/03/14 10:12:47;;;;;;;2.67;0.70;;;8.00;99.90;;;;;;5076077;28;20198;-44
2023/03/14 10:15:22;;;;;;;0.93;0.83;;;8.00;99.90;;;;;;5075954;28;20211;-47
2023/03/14 10:17:49;;;;;;;1.30;1.20;;;8.00;99.90;;;;;;5076744;28;20516;-46
2023/03/14 10:20:35;;;;;;;4.13;1.33;;;8.00;99.90;;;;;;5075788;28;20227;-44
2023/03/14 10:23:26;;;;;;;3.30;1.50;;;8.00;99.90;;;;;;5075465;28;20199;-43
2023/03/14 10:26:05;;;;;;;1.17;1.00;;;8.00;99.90;;;;;;5076089;28;20254;-45
2023/03/14 10:28:35;;;;;;;0.93;0.90;;;8.00;99.90;;;;;;5076314;28;20258;-45
2023/03/14 10:31:00;;;;;;;2.03;1.20;;;8.00;99.90;;;;;;5075588;28;20202;-44
2023/03/14 10:33:32;;;;;;;1.53;1.07;;;8.00;99.90;;;;;;5075628;28;20186;-46
2023/03/14 10:36:14;;;;;;;2.87;1.30;;;8.10;99.90;;;;;;5075550;28;20200;-45
2023/03/14 10:38:40;;;;;;;1.10;1.00;;;8.20;99.90;;;;;;5075511;28;20672;-45
2023/03/14 10:41:26;;;;;;;1.93;1.10;;;8.10;99.90;;;;;;5075424;28;20194;-45
2023/03/14 10:43:58;;;;;;;1.70;1.30;;;8.20;99.90;;;;;;5075754;28;20180;-45
2023/03/14 10:46:26;;;;;;;2.13;1.50;;;8.20;99.90;;;;;;5075665;28;20198;-44
2023/03/14 10:48:53;;;;;;;3.07;1.50;;;8.20;99.90;;;;;;5075663;28;20598;-45
2023/03/14 10:51:28;;;;;;;2.40;1.50;;;8.30;99.90;;;;;;5075518;28;20203;-45
2023/03/14 10:54:03;;;;;;;0.93;0.93;;;8.40;99.90;;;;;;5074111;28;20185;-48
2023/03/14 10:56:35;;;;;;;2.27;1.27;;;8.30;99.90;;;;;;5075171;28;20209;-47
2023/03/14 10:59:02;;;;;;;2.40;1.30;;;8.40;99.90;;;;;;5075160;28;20655;-44
2023/03/14 11:01:42;;;;;;;2.90;1.87;;;8.40;99.90;;;;;;5075373;28;20627;-44
2023/03/14 11:04:21;;;;;;;2.63;1.50;;;8.60;99.90;;;;;;5075419;28;20543;-47
2023/03/14 11:07:28;;;;;;;1.97;1.13;;;8.80;99.90;;;;;;5074690;28;20181;-45
2023/03/14 11:10:14;;;;;;;2.70;1.50;;;8.90;99.90;;;;;;5075216;28;20216;-44
2023/03/14 11:12:51;;;;;;;3.63;1.60;;;9.00;99.90;;;;;;5075452;28;20600;-46
2023/03/14 11:15:30;;;;;;;1.27;0.70;;;8.80;99.90;;;;;;5075162;28;20201;-44
2023/03/14 11:18:12;;;;;;;1.23;0.90;;;8.50;99.90;;;;;;5075268;28;20198;-44
2023/03/14 11:21:20;;;;;;;2.20;0.93;;;7.90;99.90;;;;;;5074858;28;20209;-43
2023/03/14 11:24:04;;;;;;;1.00;0.70;;;7.40;99.90;;;;;;5032624;28;20183;-43
2023/03/14 11:26:41;;;;;;;1.40;1.03;;;7.20;99.90;;;;;;5032738;28;20177;-43
2023/03/14 11:29:30;;;;;;;3.23;1.00;;;7.10;99.90;;;;;;5060620;28;20556;-45
2023/03/14 11:32:01;;;;;;;2.53;0.60;;;7.10;99.90;;;;;;5074697;28;20196;-45
2023/03/14 11:34:48;;;;;;;0.60;0.57;;;7.20;99.90;;;;;;5074450;28;20182;-45
2023/03/14 11:37:34;;;;;;;1.80;0.87;;;7.20;99.90;;;;;;5074704;28;20216;-44
2023/03/14 11:40:05;;;;;;;2.63;0.70;;;7.20;99.90;;;;;;5073058;28;20178;-43
2023/03/14 11:42:32;;;;;;;0.90;0.60;;;7.20;99.90;;;;;;5074636;28;20571;-43
2023/03/14 11:45:01;;;;;;;1.23;0.70;;;7.30;99.90;;;;;;5074499;28;20274;-45
2023/03/14 11:47:32;;;;;;;2.30;0.80;;;7.30;99.90;;;;;;5075163;28;20752;-45
2023/03/14 11:50:18;;;;;;;1.77;0.80;;;7.30;99.90;;;;;;5074238;28;20197;-44
2023/03/14 11:52:47;;;;;;;0.93;0.67;;;7.40;99.90;;;;;;5074312;28;20252;-44
2023/03/14 11:55:32;;;;;;;3.60;0.67;;;7.40;99.90;;;;;;5074495;28;20345;-46
2023/03/14 11:58:18;;;;;;;4.80;1.33;;;7.40;99.90;;;;;;5073885;28;20236;-46
2023/03/14 12:00:46;;;;;;;0.50;0.50;;;7.40;99.90;;;;;;5073845;28;20263;-47
2023/03/14 12:03:15;;;;;;;3.03;0.83;;;7.40;99.90;;;;;;5073865;28;20587;-45
2023/03/14 12:05:58;;;;;;;3.60;1.00;;;7.30;99.90;;;;;;5074132;28;20257;-44
2023/03/14 12:08:30;;;;;;;1.33;0.60;;;7.30;99.90;;;;;;5073844;28;20604;-43
2023/03/14 12:11:01;;;;;;;2.50;0.70;;;7.30;99.90;;;;;;5073906;28;20278;-43
2023/03/14 12:13:35;;;;;;;3.53;1.00;;;7.30;99.90;;;;;;5074340;28;20182;-43
2023/03/14 12:16:05;;;;;;;4.50;1.20;;;7.30;99.90;;;;;;5074021;28;20206;-46
2023/03/14 12:18:39;;;;;;;4.70;1.20;;;7.30;99.90;;;;;;5073310;28;20198;-46
2023/03/14 12:21:07;;;;;;;3.07;0.93;;;7.30;99.90;;;;;;5073849;28;20316;-43
2023/03/14 12:23:53;;;;;;;3.57;1.03;;;7.40;99.90;;;;;;5073873;28;20225;-45
2023/03/14 12:26:20;;;;;;;5.80;1.43;;;7.40;99.90;;;;;;5073614;28;20167;-43
2023/03/14 12:29:14;;;;;;;2.33;0.80;;;7.50;99.90;;;;;;5074077;28;20206;-46
2023/03/14 12:31:46;;;;;;;4.03;1.10;;;7.50;99.90;;;;;;5073810;28;20231;-45
2023/03/14 12:34:12;;;;;;;4.37;1.30;;;7.50;99.90;;;;;;5073453;28;20180;-45
2023/03/14 12:36:48;;;;;;;3.30;1.20;;;7.60;99.90;;;;;;5073612;28;20227;-44
2023/03/14 12:39:14;;;;;;;7.90;1.43;;;7.60;99.90;;;;;;5073471;28;20182;-46
2023/03/14 12:41:45;;;;;;;6.40;1.03;;;7.50;99.90;;;;;;5073276;28;20200;-45
2023/03/14 12:44:29;;;;;;;3.57;1.00;;;7.40;99.90;;;;;;5073364;28;20218;-44
2023/03/14 12:47:18;;;;;;;4.87;1.50;;;7.40;99.90;;;;;;5073585;28;20688;-44
2023/03/14 12:49:49;;;;;;;5.10;1.50;;;7.40;99.90;;;;;;5073443;28;20224;-44
2023/03/14 12:52:32;;;;;;;8.23;1.60;;;7.40;99.90;;;;;;5073462;28;20257;-44
2023/03/14 12:55:04;;;;;;;5.73;1.70;;;7.40;99.90;;;;;;5073455;28;20207;-45
2023/03/14 12:57:51;;;;;;;9.90;2.07;;;7.50;99.90;;;;;;5073566;28;20168;-45
2023/03/14 13:00:54;;;;;;;11.50;2.07;;;7.60;99.90;;;;;;5073056;28;20218;-47
2023/03/14 13:03:26;;;;;;;6.97;1.20;;;7.60;99.90;;;;;;5073234;28;20180;-46